sensor_id;sensor_type;location;lat;lon;timestamp;P1;durP1;ratioP1;P2;durP2;ratioP2
8683;SDS011;4379;59.744;18.206;2022-08-21T00:01:51;2.05;;;1.65;;
8683;SDS011;4379;59.744;18.206;2022-08-21T00:04:19;4.40;;;2.20;;
8683;SDS011;4379;59.744;18.206;2022-08-21T00:06:48;5.13;;;2.40;;
8683;SDS011;4379;59.744;18.206;2022-08-21T00:09:17;5.50;;;2.28;;
8683;SDS011;4379;59.744;18.206;2022-08-21T00:11:45;2.53;;;2.33;;
8683;SDS011;4379;59.744;18.206;2022-08-21T00:14:14;3.30;;;2.25;;
8683;SDS011;4379;59.744;18.206;2022-08-21T00:16:42;2.47;;;2.25;;
8683;SDS011;4379;59.744;18.206;2022-08-21T00:19:10;3.63;;;2.00;;
8683;SDS011;4379;59.744;18.206;2022-08-21T00:21:37;2.30;;;1.90;;
8683;SDS011;4379;59.744;18.206;2022-08-21T00:24:09;2.58;;;2.08;;
8683;SDS011;4379;59.744;18.206;2022-08-21T00:26:37;5.07;;;2.17;;
8683;SDS011;4379;59.744;18.206;2022-08-21T00:29:05;2.10;;;1.90;;
8683;SDS011;4379;59.744;18.206;2022-08-21T00:31:32;5.22;;;2.20;;
8683;SDS011;4379;59.744;18.206;2022-08-21T00:34:00;4.13;;;2.10;;
8683;SDS011;4379;59.744;18.206;2022-08-21T00:36:28;2.40;;;1.88;;
8683;SDS011;4379;59.744;18.206;2022-08-21T00:38:56;3.20;;;2.10;;
8683;SDS011;4379;59.744;18.206;2022-08-21T00:41:24;2.78;;;1.95;;
8683;SDS011;4379;59.744;18.206;2022-08-21T00:44:07;3.10;;;1.80;;
8683;SDS011;4379;59.744;18.206;2022-08-21T00:46:38;2.10;;;1.70;;
8683;SDS011;4379;59.744;18.206;2022-08-21T00:49:07;2.83;;;2.00;;
8683;SDS011;4379;59.744;18.206;2022-08-21T00:51:40;2.92;;;1.80;;
8683;SDS011;4379;59.744;18.206;2022-08-21T00:54:13;2.60;;;1.90;;
8683;SDS011;4379;59.744;18.206;2022-08-21T00:56:48;2.25;;;1.85;;
8683;SDS011;4379;59.744;18.206;2022-08-21T00:59:20;3.42;;;1.80;;
8683;SDS011;4379;59.744;18.206;2022-08-21T01:01:50;2.40;;;1.70;;
8683;SDS011;4379;59.744;18.206;2022-08-21T01:04:19;3.85;;;1.70;;
8683;SDS011;4379;59.744;18.206;2022-08-21T01:06:47;3.88;;;2.20;;
8683;SDS011;4379;59.744;18.206;2022-08-21T01:09:14;2.08;;;1.70;;
8683;SDS011;4379;59.744;18.206;2022-08-21T01:11:42;3.58;;;2.00;;
8683;SDS011;4379;59.744;18.206;2022-08-21T01:14:10;3.97;;;2.45;;
8683;SDS011;4379;59.744;18.206;2022-08-21T01:16:44;2.55;;;2.22;;
8683;SDS011;4379;59.744;18.206;2022-08-21T01:19:14;3.92;;;1.92;;
8683;SDS011;4379;59.744;18.206;2022-08-21T01:21:45;2.10;;;1.90;;
8683;SDS011;4379;59.744;18.206;2022-08-21T01:24:13;2.30;;;1.73;;
8683;SDS011;4379;59.744;18.206;2022-08-21T01:26:41;2.70;;;1.65;;
8683;SDS011;4379;59.744;18.206;2022-08-21T01:29:14;1.90;;;1.50;;
8683;SDS011;4379;59.744;18.206;2022-08-21T01:31:57;2.80;;;1.70;;
8683;SDS011;4379;59.744;18.206;2022-08-21T01:34:26;1.63;;;1.52;;
8683;SDS011;4379;59.744;18.206;2022-08-21T01:36:53;1.83;;;1.73;;
8683;SDS011;4379;59.744;18.206;2022-08-21T01:39:21;3.72;;;2.00;;
8683;SDS011;4379;59.744;18.206;2022-08-21T01:41:49;2.47;;;1.40;;
8683;SDS011;4379;59.744;18.206;2022-08-21T01:44:19;3.05;;;1.88;;
8683;SDS011;4379;59.744;18.206;2022-08-21T01:46:49;3.47;;;1.40;;
8683;SDS011;4379;59.744;18.206;2022-08-21T01:49:17;1.60;;;1.50;;
8683;SDS011;4379;59.744;18.206;2022-08-21T01:51:45;2.42;;;1.60;;
8683;SDS011;4379;59.744;18.206;2022-08-21T01:54:13;1.90;;;1.70;;
8683;SDS011;4379;59.744;18.206;2022-08-21T01:56:42;1.67;;;1.58;;
8683;SDS011;4379;59.744;18.206;2022-08-21T01:59:11;2.17;;;1.73;;
8683;SDS011;4379;59.744;18.206;2022-08-21T02:01:39;3.05;;;1.85;;
8683;SDS011;4379;59.744;18.206;2022-08-21T02:04:08;3.45;;;1.95;;
8683;SDS011;4379;59.744;18.206;2022-08-21T02:06:36;2.85;;;1.77;;
8683;SDS011;4379;59.744;18.206;2022-08-21T02:09:06;3.83;;;1.50;;
8683;SDS011;4379;59.744;18.206;2022-08-21T02:11:36;2.22;;;1.40;;
8683;SDS011;4379;59.744;18.206;2022-08-21T02:14:07;1.98;;;1.65;;
8683;SDS011;4379;59.744;18.206;2022-08-21T02:16:36;2.20;;;1.88;;
8683;SDS011;4379;59.744;18.206;2022-08-21T02:19:03;3.25;;;1.77;;
8683;SDS011;4379;59.744;18.206;2022-08-21T02:21:32;2.72;;;1.80;;
8683;SDS011;4379;59.744;18.206;2022-08-21T02:23:59;4.47;;;1.75;;
8683;SDS011;4379;59.744;18.206;2022-08-21T02:26:27;2.85;;;2.22;;
8683;SDS011;4379;59.744;18.206;2022-08-21T02:28:55;3.38;;;2.28;;
8683;SDS011;4379;59.744;18.206;2022-08-21T02:31:22;2.55;;;2.20;;
8683;SDS011;4379;59.744;18.206;2022-08-21T02:33:51;2.95;;;2.40;;
8683;SDS011;4379;59.744;18.206;2022-08-21T02:36:19;2.35;;;1.90;;
8683;SDS011;4379;59.744;18.206;2022-08-21T02:38:47;3.38;;;2.30;;
8683;SDS011;4379;59.744;18.206;2022-08-21T02:41:19;4.20;;;1.95;;
8683;SDS011;4379;59.744;18.206;2022-08-21T02:43:47;2.40;;;1.73;;
8683;SDS011;4379;59.744;18.206;2022-08-21T02:46:16;1.98;;;1.70;;
8683;SDS011;4379;59.744;18.206;2022-08-21T02:48:46;2.03;;;1.88;;
8683;SDS011;4379;59.744;18.206;2022-08-21T02:51:18;2.42;;;1.77;;
8683;SDS011;4379;59.744;18.206;2022-08-21T02:53:46;1.88;;;1.67;;
8683;SDS011;4379;59.744;18.206;2022-08-21T02:56:15;3.63;;;1.63;;
8683;SDS011;4379;59.744;18.206;2022-08-21T02:58:48;3.30;;;1.70;;
8683;SDS011;4379;59.744;18.206;2022-08-21T03:01:19;2.63;;;1.70;;
8683;SDS011;4379;59.744;18.206;2022-08-21T03:03:48;2.17;;;1.85;;
8683;SDS011;4379;59.744;18.206;2022-08-21T03:06:19;5.20;;;1.90;;
8683;SDS011;4379;59.744;18.206;2022-08-21T03:08:48;3.00;;;2.20;;
8683;SDS011;4379;59.744;18.206;2022-08-21T03:11:16;2.85;;;1.73;;
8683;SDS011;4379;59.744;18.206;2022-08-21T03:13:44;3.03;;;1.77;;
8683;SDS011;4379;59.744;18.206;2022-08-21T03:16:11;1.95;;;1.70;;
8683;SDS011;4379;59.744;18.206;2022-08-21T03:18:39;1.83;;;1.63;;
8683;SDS011;4379;59.744;18.206;2022-08-21T03:21:06;2.67;;;1.70;;
8683;SDS011;4379;59.744;18.206;2022-08-21T03:23:34;1.90;;;1.80;;
8683;SDS011;4379;59.744;18.206;2022-08-21T03:26:02;2.35;;;1.67;;
8683;SDS011;4379;59.744;18.206;2022-08-21T03:28:30;2.88;;;1.80;;
8683;SDS011;4379;59.744;18.206;2022-08-21T03:30:58;1.77;;;1.67;;
8683;SDS011;4379;59.744;18.206;2022-08-21T03:33:25;4.20;;;2.00;;
8683;SDS011;4379;59.744;18.206;2022-08-21T03:36:04;3.83;;;2.00;;
8683;SDS011;4379;59.744;18.206;2022-08-21T03:38:34;2.20;;;1.70;;
8683;SDS011;4379;59.744;18.206;2022-08-21T03:41:04;1.75;;;1.65;;
8683;SDS011;4379;59.744;18.206;2022-08-21T03:43:33;2.28;;;1.92;;
8683;SDS011;4379;59.744;18.206;2022-08-21T03:46:02;4.38;;;2.15;;
8683;SDS011;4379;59.744;18.206;2022-08-21T03:48:30;2.72;;;2.10;;
8683;SDS011;4379;59.744;18.206;2022-08-21T03:50:59;4.47;;;2.40;;
8683;SDS011;4379;59.744;18.206;2022-08-21T03:53:27;1.77;;;1.67;;
8683;SDS011;4379;59.744;18.206;2022-08-21T03:55:56;3.08;;;1.90;;
8683;SDS011;4379;59.744;18.206;2022-08-21T03:58:25;2.33;;;1.90;;
8683;SDS011;4379;59.744;18.206;2022-08-21T04:00:55;2.63;;;2.00;;
8683;SDS011;4379;59.744;18.206;2022-08-21T04:03:24;2.90;;;1.90;;
8683;SDS011;4379;59.744;18.206;2022-08-21T04:05:53;2.88;;;2.00;;
8683;SDS011;4379;59.744;18.206;2022-08-21T04:08:21;1.95;;;1.75;;
8683;SDS011;4379;59.744;18.206;2022-08-21T04:10:50;1.88;;;1.67;;
8683;SDS011;4379;59.744;18.206;2022-08-21T04:13:20;3.50;;;2.10;;
8683;SDS011;4379;59.744;18.206;2022-08-21T04:15:48;2.22;;;2.03;;
8683;SDS011;4379;59.744;18.206;2022-08-21T04:18:17;1.88;;;1.65;;
8683;SDS011;4379;59.744;18.206;2022-08-21T04:20:44;3.45;;;1.80;;
8683;SDS011;4379;59.744;18.206;2022-08-21T04:23:16;1.92;;;1.77;;
8683;SDS011;4379;59.744;18.206;2022-08-21T04:25:50;4.68;;;1.92;;
8683;SDS011;4379;59.744;18.206;2022-08-21T04:28:19;2.17;;;1.70;;
8683;SDS011;4379;59.744;18.206;2022-08-21T04:30:49;4.90;;;1.88;;
8683;SDS011;4379;59.744;18.206;2022-08-21T04:33:19;2.78;;;1.95;;
8683;SDS011;4379;59.744;18.206;2022-08-21T04:35:48;3.22;;;2.13;;
8683;SDS011;4379;59.744;18.206;2022-08-21T04:38:16;3.20;;;2.10;;
8683;SDS011;4379;59.744;18.206;2022-08-21T04:40:44;4.47;;;2.42;;
8683;SDS011;4379;59.744;18.206;2022-08-21T04:43:12;4.10;;;2.00;;
8683;SDS011;4379;59.744;18.206;2022-08-21T04:45:41;2.70;;;2.28;;
8683;SDS011;4379;59.744;18.206;2022-08-21T04:48:11;3.03;;;2.00;;
8683;SDS011;4379;59.744;18.206;2022-08-21T04:53:22;3.00;;;1.95;;
8683;SDS011;4379;59.744;18.206;2022-08-21T04:55:52;2.38;;;1.80;;
8683;SDS011;4379;59.744;18.206;2022-08-21T04:58:22;2.88;;;2.15;;
8683;SDS011;4379;59.744;18.206;2022-08-21T05:00:54;2.72;;;1.63;;
8683;SDS011;4379;59.744;18.206;2022-08-21T05:03:24;4.15;;;2.05;;
8683;SDS011;4379;59.744;18.206;2022-08-21T05:05:51;3.50;;;1.80;;
8683;SDS011;4379;59.744;18.206;2022-08-21T05:08:19;1.70;;;1.52;;
8683;SDS011;4379;59.744;18.206;2022-08-21T05:10:50;3.78;;;2.00;;
8683;SDS011;4379;59.744;18.206;2022-08-21T05:13:23;3.17;;;2.00;;
8683;SDS011;4379;59.744;18.206;2022-08-21T05:15:51;3.03;;;1.85;;
8683;SDS011;4379;59.744;18.206;2022-08-21T05:18:19;4.85;;;2.05;;
8683;SDS011;4379;59.744;18.206;2022-08-21T05:20:47;2.03;;;1.83;;
8683;SDS011;4379;59.744;18.206;2022-08-21T05:23:15;2.42;;;1.67;;
8683;SDS011;4379;59.744;18.206;2022-08-21T05:25:43;2.60;;;2.25;;
8683;SDS011;4379;59.744;18.206;2022-08-21T05:28:11;5.03;;;2.58;;
8683;SDS011;4379;59.744;18.206;2022-08-21T05:30:39;3.33;;;2.17;;
8683;SDS011;4379;59.744;18.206;2022-08-21T05:33:07;2.63;;;2.42;;
8683;SDS011;4379;59.744;18.206;2022-08-21T05:35:35;4.35;;;2.60;;
8683;SDS011;4379;59.744;18.206;2022-08-21T05:38:03;3.53;;;2.00;;
8683;SDS011;4379;59.744;18.206;2022-08-21T05:40:42;3.75;;;2.58;;
8683;SDS011;4379;59.744;18.206;2022-08-21T05:43:10;3.10;;;2.20;;
8683;SDS011;4379;59.744;18.206;2022-08-21T05:45:37;3.03;;;2.22;;
8683;SDS011;4379;59.744;18.206;2022-08-21T05:48:17;4.43;;;2.17;;
8683;SDS011;4379;59.744;18.206;2022-08-21T05:50:47;2.92;;;2.05;;
8683;SDS011;4379;59.744;18.206;2022-08-21T05:53:16;2.53;;;2.28;;
8683;SDS011;4379;59.744;18.206;2022-08-21T05:55:45;3.60;;;2.08;;
8683;SDS011;4379;59.744;18.206;2022-08-21T05:58:15;2.25;;;1.80;;
8683;SDS011;4379;59.744;18.206;2022-08-21T06:00:45;3.00;;;2.17;;
8683;SDS011;4379;59.744;18.206;2022-08-21T06:03:21;4.28;;;2.08;;
8683;SDS011;4379;59.744;18.206;2022-08-21T06:05:51;4.22;;;2.20;;
8683;SDS011;4379;59.744;18.206;2022-08-21T06:08:19;2.90;;;2.35;;
8683;SDS011;4379;59.744;18.206;2022-08-21T06:10:48;4.07;;;2.30;;
8683;SDS011;4379;59.744;18.206;2022-08-21T06:13:17;4.20;;;2.58;;
8683;SDS011;4379;59.744;18.206;2022-08-21T06:15:45;6.60;;;2.50;;
8683;SDS011;4379;59.744;18.206;2022-08-21T06:18:13;3.28;;;2.25;;
8683;SDS011;4379;59.744;18.206;2022-08-21T06:20:41;3.75;;;2.15;;
8683;SDS011;4379;59.744;18.206;2022-08-21T06:23:08;2.60;;;2.17;;
8683;SDS011;4379;59.744;18.206;2022-08-21T06:25:36;5.00;;;2.72;;
8683;SDS011;4379;59.744;18.206;2022-08-21T06:28:04;3.72;;;2.28;;
8683;SDS011;4379;59.744;18.206;2022-08-21T06:30:34;3.58;;;2.40;;
8683;SDS011;4379;59.744;18.206;2022-08-21T06:33:03;4.03;;;2.40;;
8683;SDS011;4379;59.744;18.206;2022-08-21T06:35:31;3.17;;;2.15;;
8683;SDS011;4379;59.744;18.206;2022-08-21T06:37:59;2.72;;;2.38;;
8683;SDS011;4379;59.744;18.206;2022-08-21T06:40:27;2.28;;;2.08;;
8683;SDS011;4379;59.744;18.206;2022-08-21T06:43:10;4.35;;;2.47;;
8683;SDS011;4379;59.744;18.206;2022-08-21T06:45:40;2.50;;;2.30;;
8683;SDS011;4379;59.744;18.206;2022-08-21T06:48:08;4.05;;;2.28;;
8683;SDS011;4379;59.744;18.206;2022-08-21T06:50:55;3.20;;;2.30;;
8683;SDS011;4379;59.744;18.206;2022-08-21T06:53:23;4.15;;;2.10;;
8683;SDS011;4379;59.744;18.206;2022-08-21T06:55:50;3.40;;;2.60;;
8683;SDS011;4379;59.744;18.206;2022-08-21T06:58:18;3.10;;;2.17;;
8683;SDS011;4379;59.744;18.206;2022-08-21T07:00:47;3.08;;;2.17;;
8683;SDS011;4379;59.744;18.206;2022-08-21T07:05:50;3.08;;;2.58;;
8683;SDS011;4379;59.744;18.206;2022-08-21T07:08:19;4.00;;;2.50;;
8683;SDS011;4379;59.744;18.206;2022-08-21T07:10:47;3.35;;;2.42;;
8683;SDS011;4379;59.744;18.206;2022-08-21T07:13:15;3.10;;;2.40;;
8683;SDS011;4379;59.744;18.206;2022-08-21T07:15:44;4.90;;;2.65;;
8683;SDS011;4379;59.744;18.206;2022-08-21T07:18:12;5.00;;;2.55;;
8683;SDS011;4379;59.744;18.206;2022-08-21T07:20:40;4.90;;;2.80;;
8683;SDS011;4379;59.744;18.206;2022-08-21T07:23:13;5.63;;;2.60;;
8683;SDS011;4379;59.744;18.206;2022-08-21T07:25:50;4.60;;;2.33;;
8683;SDS011;4379;59.744;18.206;2022-08-21T07:28:17;5.45;;;2.45;;
8683;SDS011;4379;59.744;18.206;2022-08-21T07:30:45;4.38;;;2.25;;
8683;SDS011;4379;59.744;18.206;2022-08-21T07:33:17;3.40;;;2.30;;
8683;SDS011;4379;59.744;18.206;2022-08-21T07:35:46;3.92;;;2.40;;
8683;SDS011;4379;59.744;18.206;2022-08-21T07:38:13;4.45;;;2.40;;
8683;SDS011;4379;59.744;18.206;2022-08-21T07:40:41;5.00;;;2.70;;
8683;SDS011;4379;59.744;18.206;2022-08-21T07:43:09;3.15;;;2.58;;
8683;SDS011;4379;59.744;18.206;2022-08-21T07:45:37;2.67;;;2.10;;
8683;SDS011;4379;59.744;18.206;2022-08-21T07:48:05;3.63;;;2.40;;
8683;SDS011;4379;59.744;18.206;2022-08-21T07:50:32;5.22;;;2.47;;
8683;SDS011;4379;59.744;18.206;2022-08-21T07:53:00;3.47;;;2.63;;
8683;SDS011;4379;59.744;18.206;2022-08-21T07:55:27;3.28;;;2.40;;
8683;SDS011;4379;59.744;18.206;2022-08-21T07:57:55;2.97;;;2.30;;
8683;SDS011;4379;59.744;18.206;2022-08-21T08:00:24;4.10;;;2.58;;
8683;SDS011;4379;59.744;18.206;2022-08-21T08:02:53;4.40;;;2.50;;
8683;SDS011;4379;59.744;18.206;2022-08-21T08:05:24;3.58;;;2.70;;
8683;SDS011;4379;59.744;18.206;2022-08-21T08:07:54;3.92;;;2.40;;
8683;SDS011;4379;59.744;18.206;2022-08-21T08:10:22;2.92;;;2.17;;
8683;SDS011;4379;59.744;18.206;2022-08-21T08:12:51;3.25;;;2.00;;
8683;SDS011;4379;59.744;18.206;2022-08-21T08:15:19;6.15;;;2.30;;
8683;SDS011;4379;59.744;18.206;2022-08-21T08:17:49;4.88;;;2.63;;
8683;SDS011;4379;59.744;18.206;2022-08-21T08:20:17;3.45;;;2.50;;
8683;SDS011;4379;59.744;18.206;2022-08-21T08:22:48;3.58;;;2.40;;
8683;SDS011;4379;59.744;18.206;2022-08-21T08:25:18;3.08;;;2.28;;
8683;SDS011;4379;59.744;18.206;2022-08-21T08:27:46;3.85;;;2.28;;
8683;SDS011;4379;59.744;18.206;2022-08-21T08:30:15;3.47;;;2.53;;
8683;SDS011;4379;59.744;18.206;2022-08-21T08:32:47;4.10;;;2.67;;
8683;SDS011;4379;59.744;18.206;2022-08-21T08:35:16;2.83;;;2.25;;
8683;SDS011;4379;59.744;18.206;2022-08-21T08:37:47;4.32;;;2.05;;
8683;SDS011;4379;59.744;18.206;2022-08-21T08:40:22;6.18;;;2.95;;
8683;SDS011;4379;59.744;18.206;2022-08-21T08:42:56;3.47;;;2.38;;
8683;SDS011;4379;59.744;18.206;2022-08-21T08:45:24;3.13;;;2.22;;
8683;SDS011;4379;59.744;18.206;2022-08-21T08:47:57;4.25;;;2.40;;
8683;SDS011;4379;59.744;18.206;2022-08-21T08:50:50;3.90;;;2.42;;
8683;SDS011;4379;59.744;18.206;2022-08-21T08:53:26;4.03;;;2.70;;
8683;SDS011;4379;59.744;18.206;2022-08-21T08:56:00;3.75;;;2.30;;
8683;SDS011;4379;59.744;18.206;2022-08-21T08:58:30;3.20;;;2.47;;
8683;SDS011;4379;59.744;18.206;2022-08-21T09:01:01;3.35;;;2.30;;
8683;SDS011;4379;59.744;18.206;2022-08-21T09:03:33;4.03;;;2.30;;
8683;SDS011;4379;59.744;18.206;2022-08-21T09:06:16;4.00;;;2.28;;
8683;SDS011;4379;59.744;18.206;2022-08-21T09:12:16;4.18;;;2.72;;
8683;SDS011;4379;59.744;18.206;2022-08-21T09:15:12;4.80;;;2.20;;
8683;SDS011;4379;59.744;18.206;2022-08-21T09:20:41;4.50;;;2.38;;
8683;SDS011;4379;59.744;18.206;2022-08-21T09:27:02;3.55;;;2.08;;
8683;SDS011;4379;59.744;18.206;2022-08-21T09:29:36;4.03;;;2.00;;
8683;SDS011;4379;59.744;18.206;2022-08-21T09:32:10;3.17;;;2.30;;
8683;SDS011;4379;59.744;18.206;2022-08-21T09:37:31;6.75;;;2.50;;
8683;SDS011;4379;59.744;18.206;2022-08-21T09:40:01;4.88;;;2.47;;
8683;SDS011;4379;59.744;18.206;2022-08-21T09:42:42;2.33;;;2.10;;
8683;SDS011;4379;59.744;18.206;2022-08-21T09:45:21;3.63;;;2.47;;
8683;SDS011;4379;59.744;18.206;2022-08-21T09:47:49;3.30;;;2.38;;
8683;SDS011;4379;59.744;18.206;2022-08-21T09:50:19;4.88;;;2.53;;
8683;SDS011;4379;59.744;18.206;2022-08-21T09:52:56;3.78;;;2.28;;
8683;SDS011;4379;59.744;18.206;2022-08-21T09:55:30;7.57;;;2.78;;
8683;SDS011;4379;59.744;18.206;2022-08-21T09:58:19;2.70;;;2.13;;
8683;SDS011;4379;59.744;18.206;2022-08-21T10:00:56;3.35;;;2.33;;
8683;SDS011;4379;59.744;18.206;2022-08-21T10:03:26;4.93;;;2.33;;
8683;SDS011;4379;59.744;18.206;2022-08-21T10:05:58;2.50;;;2.20;;
8683;SDS011;4379;59.744;18.206;2022-08-21T10:08:36;2.35;;;2.10;;
8683;SDS011;4379;59.744;18.206;2022-08-21T10:11:06;3.20;;;2.10;;
8683;SDS011;4379;59.744;18.206;2022-08-21T10:22:20;2.38;;;1.70;;
8683;SDS011;4379;59.744;18.206;2022-08-21T10:28:15;4.13;;;2.33;;
8683;SDS011;4379;59.744;18.206;2022-08-21T10:36:33;2.42;;;2.15;;
8683;SDS011;4379;59.744;18.206;2022-08-21T10:42:46;4.28;;;2.33;;
8683;SDS011;4379;59.744;18.206;2022-08-21T10:45:09;3.17;;;2.20;;
8683;SDS011;4379;59.744;18.206;2022-08-21T10:47:48;2.63;;;2.17;;
8683;SDS011;4379;59.744;18.206;2022-08-21T10:56:12;2.55;;;2.10;;
8683;SDS011;4379;59.744;18.206;2022-08-21T10:58:49;2.47;;;1.90;;
8683;SDS011;4379;59.744;18.206;2022-08-21T11:01:28;3.42;;;1.73;;
8683;SDS011;4379;59.744;18.206;2022-08-21T11:07:35;3.40;;;2.20;;
8683;SDS011;4379;59.744;18.206;2022-08-21T11:09:46;1.85;;;1.73;;
8683;SDS011;4379;59.744;18.206;2022-08-21T11:20:43;2.20;;;1.70;;
8683;SDS011;4379;59.744;18.206;2022-08-21T11:23:25;2.30;;;1.80;;
8683;SDS011;4379;59.744;18.206;2022-08-21T11:26:18;2.20;;;1.80;;
8683;SDS011;4379;59.744;18.206;2022-08-21T11:29:10;2.25;;;1.65;;
8683;SDS011;4379;59.744;18.206;2022-08-21T11:39:59;2.40;;;1.38;;
8683;SDS011;4379;59.744;18.206;2022-08-21T11:42:36;1.98;;;1.77;;
8683;SDS011;4379;59.744;18.206;2022-08-21T11:45:52;1.60;;;1.50;;
8683;SDS011;4379;59.744;18.206;2022-08-21T11:54:21;3.10;;;1.58;;
8683;SDS011;4379;59.744;18.206;2022-08-21T12:02:36;2.30;;;1.67;;
8683;SDS011;4379;59.744;18.206;2022-08-21T12:05:09;1.70;;;1.25;;
8683;SDS011;4379;59.744;18.206;2022-08-21T12:07:59;1.60;;;1.50;;
8683;SDS011;4379;59.744;18.206;2022-08-21T12:10:34;1.33;;;1.23;;
8683;SDS011;4379;59.744;18.206;2022-08-21T12:13:09;1.50;;;1.33;;
8683;SDS011;4379;59.744;18.206;2022-08-21T12:16:16;1.48;;;1.38;;
8683;SDS011;4379;59.744;18.206;2022-08-21T12:27:14;1.35;;;1.25;;
8683;SDS011;4379;59.744;18.206;2022-08-21T12:29:58;1.80;;;1.65;;
8683;SDS011;4379;59.744;18.206;2022-08-21T12:32:41;1.38;;;1.27;;
8683;SDS011;4379;59.744;18.206;2022-08-21T12:35:17;5.00;;;1.50;;
8683;SDS011;4379;59.744;18.206;2022-08-21T12:41:09;1.48;;;1.10;;
8683;SDS011;4379;59.744;18.206;2022-08-21T12:43:46;1.90;;;1.35;;
8683;SDS011;4379;59.744;18.206;2022-08-21T12:46:32;2.05;;;1.60;;
8683;SDS011;4379;59.744;18.206;2022-08-21T12:49:31;2.78;;;1.58;;
8683;SDS011;4379;59.744;18.206;2022-08-21T12:52:34;1.85;;;1.52;;
8683;SDS011;4379;59.744;18.206;2022-08-21T12:54:55;1.30;;;1.20;;
8683;SDS011;4379;59.744;18.206;2022-08-21T12:57:24;1.33;;;1.23;;
8683;SDS011;4379;59.744;18.206;2022-08-21T12:59:57;1.45;;;1.33;;
8683;SDS011;4379;59.744;18.206;2022-08-21T13:02:29;1.80;;;1.70;;
8683;SDS011;4379;59.744;18.206;2022-08-21T13:05:04;1.40;;;1.27;;
8683;SDS011;4379;59.744;18.206;2022-08-21T13:07:34;1.50;;;1.40;;
8683;SDS011;4379;59.744;18.206;2022-08-21T13:10:05;1.45;;;1.10;;
8683;SDS011;4379;59.744;18.206;2022-08-21T13:12:45;2.03;;;1.30;;
8683;SDS011;4379;59.744;18.206;2022-08-21T13:15:14;1.40;;;1.23;;
8683;SDS011;4379;59.744;18.206;2022-08-21T13:17:58;1.70;;;1.35;;
8683;SDS011;4379;59.744;18.206;2022-08-21T13:20:37;1.40;;;1.30;;
8683;SDS011;4379;59.744;18.206;2022-08-21T13:23:25;1.60;;;1.50;;
8683;SDS011;4379;59.744;18.206;2022-08-21T13:25:57;1.50;;;1.40;;
8683;SDS011;4379;59.744;18.206;2022-08-21T13:28:32;1.65;;;1.55;;
8683;SDS011;4379;59.744;18.206;2022-08-21T13:31:05;1.08;;;0.95;;
8683;SDS011;4379;59.744;18.206;2022-08-21T13:33:37;1.08;;;1.00;;
8683;SDS011;4379;59.744;18.206;2022-08-21T13:36:11;2.17;;;1.42;;
8683;SDS011;4379;59.744;18.206;2022-08-21T13:38:52;1.38;;;1.17;;
8683;SDS011;4379;59.744;18.206;2022-08-21T13:41:24;1.60;;;1.50;;
8683;SDS011;4379;59.744;18.206;2022-08-21T13:44:00;2.58;;;1.30;;
8683;SDS011;4379;59.744;18.206;2022-08-21T13:46:33;0.93;;;0.93;;
8683;SDS011;4379;59.744;18.206;2022-08-21T13:49:04;1.60;;;1.38;;
8683;SDS011;4379;59.744;18.206;2022-08-21T13:51:34;1.45;;;1.35;;
8683;SDS011;4379;59.744;18.206;2022-08-21T13:54:14;1.40;;;1.30;;
8683;SDS011;4379;59.744;18.206;2022-08-21T13:57:01;1.30;;;1.20;;
8683;SDS011;4379;59.744;18.206;2022-08-21T13:59:31;2.83;;;1.38;;
8683;SDS011;4379;59.744;18.206;2022-08-21T14:02:08;2.33;;;1.10;;
8683;SDS011;4379;59.744;18.206;2022-08-21T14:04:44;1.10;;;1.10;;
8683;SDS011;4379;59.744;18.206;2022-08-21T14:07:29;2.53;;;1.08;;
8683;SDS011;4379;59.744;18.206;2022-08-21T14:10:00;1.65;;;1.48;;
8683;SDS011;4379;59.744;18.206;2022-08-21T14:13:04;1.17;;;1.08;;
8683;SDS011;4379;59.744;18.206;2022-08-21T14:15:34;1.00;;;1.00;;
8683;SDS011;4379;59.744;18.206;2022-08-21T14:18:16;1.17;;;1.00;;
8683;SDS011;4379;59.744;18.206;2022-08-21T14:20:46;1.45;;;1.02;;
8683;SDS011;4379;59.744;18.206;2022-08-21T14:23:26;1.55;;;1.05;;
8683;SDS011;4379;59.744;18.206;2022-08-21T14:25:54;1.20;;;1.10;;
8683;SDS011;4379;59.744;18.206;2022-08-21T14:28:38;2.10;;;1.40;;
8683;SDS011;4379;59.744;18.206;2022-08-21T14:31:28;2.35;;;1.27;;
8683;SDS011;4379;59.744;18.206;2022-08-21T14:33:59;1.67;;;1.40;;
8683;SDS011;4379;59.744;18.206;2022-08-21T14:36:44;1.25;;;1.15;;
8683;SDS011;4379;59.744;18.206;2022-08-21T14:39:12;1.13;;;1.02;;
8683;SDS011;4379;59.744;18.206;2022-08-21T14:41:39;2.53;;;1.52;;
8683;SDS011;4379;59.744;18.206;2022-08-21T14:44:09;1.63;;;1.45;;
8683;SDS011;4379;59.744;18.206;2022-08-21T14:46:37;1.42;;;1.30;;
8683;SDS011;4379;59.744;18.206;2022-08-21T14:49:22;1.65;;;1.55;;
8683;SDS011;4379;59.744;18.206;2022-08-21T14:51:53;1.45;;;1.35;;
8683;SDS011;4379;59.744;18.206;2022-08-21T14:54:25;1.38;;;1.23;;
8683;SDS011;4379;59.744;18.206;2022-08-21T14:56:59;1.70;;;1.27;;
8683;SDS011;4379;59.744;18.206;2022-08-21T14:59:32;1.40;;;1.30;;
8683;SDS011;4379;59.744;18.206;2022-08-21T15:02:02;1.30;;;1.20;;
8683;SDS011;4379;59.744;18.206;2022-08-21T15:04:32;1.50;;;1.40;;
8683;SDS011;4379;59.744;18.206;2022-08-21T15:07:02;2.10;;;1.17;;
8683;SDS011;4379;59.744;18.206;2022-08-21T15:09:31;1.20;;;1.10;;
8683;SDS011;4379;59.744;18.206;2022-08-21T15:11:59;2.38;;;1.02;;
8683;SDS011;4379;59.744;18.206;2022-08-21T15:14:29;1.23;;;1.13;;
8683;SDS011;4379;59.744;18.206;2022-08-21T15:16:59;0.90;;;0.90;;
8683;SDS011;4379;59.744;18.206;2022-08-21T15:19:26;3.00;;;1.25;;
8683;SDS011;4379;59.744;18.206;2022-08-21T15:21:56;1.13;;;1.02;;
8683;SDS011;4379;59.744;18.206;2022-08-21T15:24:23;0.88;;;0.85;;
8683;SDS011;4379;59.744;18.206;2022-08-21T15:26:51;1.38;;;1.23;;
8683;SDS011;4379;59.744;18.206;2022-08-21T15:29:20;1.20;;;1.10;;
8683;SDS011;4379;59.744;18.206;2022-08-21T15:31:55;1.27;;;1.17;;
8683;SDS011;4379;59.744;18.206;2022-08-21T15:34:55;1.45;;;1.27;;
8683;SDS011;4379;59.744;18.206;2022-08-21T15:37:27;1.60;;;1.25;;
8683;SDS011;4379;59.744;18.206;2022-08-21T15:39:54;1.30;;;1.20;;
8683;SDS011;4379;59.744;18.206;2022-08-21T15:42:22;1.00;;;1.00;;
8683;SDS011;4379;59.744;18.206;2022-08-21T15:44:54;1.40;;;1.30;;
8683;SDS011;4379;59.744;18.206;2022-08-21T15:47:29;1.45;;;1.35;;
8683;SDS011;4379;59.744;18.206;2022-08-21T15:50:07;1.00;;;1.00;;
8683;SDS011;4379;59.744;18.206;2022-08-21T15:52:35;1.00;;;1.00;;
8683;SDS011;4379;59.744;18.206;2022-08-21T15:55:05;1.20;;;1.10;;
8683;SDS011;4379;59.744;18.206;2022-08-21T15:57:33;1.30;;;1.20;;
8683;SDS011;4379;59.744;18.206;2022-08-21T16:00:06;1.38;;;1.15;;
8683;SDS011;4379;59.744;18.206;2022-08-21T16:02:42;1.00;;;1.00;;
8683;SDS011;4379;59.744;18.206;2022-08-21T16:05:13;1.00;;;1.00;;
8683;SDS011;4379;59.744;18.206;2022-08-21T16:07:43;1.30;;;1.20;;
8683;SDS011;4379;59.744;18.206;2022-08-21T16:10:11;1.90;;;1.30;;
8683;SDS011;4379;59.744;18.206;2022-08-21T16:12:43;1.45;;;1.30;;
8683;SDS011;4379;59.744;18.206;2022-08-21T16:15:15;1.73;;;1.10;;
8683;SDS011;4379;59.744;18.206;2022-08-21T16:17:47;1.23;;;0.93;;
8683;SDS011;4379;59.744;18.206;2022-08-21T16:20:20;1.10;;;0.98;;
8683;SDS011;4379;59.744;18.206;2022-08-21T16:22:51;1.75;;;1.27;;
8683;SDS011;4379;59.744;18.206;2022-08-21T16:25:21;1.25;;;1.10;;
8683;SDS011;4379;59.744;18.206;2022-08-21T16:27:49;1.00;;;1.00;;
8683;SDS011;4379;59.744;18.206;2022-08-21T16:30:25;1.10;;;1.05;;
8683;SDS011;4379;59.744;18.206;2022-08-21T16:32:53;1.20;;;1.10;;
8683;SDS011;4379;59.744;18.206;2022-08-21T16:35:21;0.90;;;0.90;;
8683;SDS011;4379;59.744;18.206;2022-08-21T16:37:50;1.10;;;1.00;;
8683;SDS011;4379;59.744;18.206;2022-08-21T16:40:19;1.48;;;1.10;;
8683;SDS011;4379;59.744;18.206;2022-08-21T16:42:53;1.00;;;0.93;;
8683;SDS011;4379;59.744;18.206;2022-08-21T16:45:21;1.48;;;0.90;;
8683;SDS011;4379;59.744;18.206;2022-08-21T16:47:48;1.27;;;1.20;;
8683;SDS011;4379;59.744;18.206;2022-08-21T16:50:19;1.05;;;0.98;;
8683;SDS011;4379;59.744;18.206;2022-08-21T16:52:48;1.42;;;0.90;;
8683;SDS011;4379;59.744;18.206;2022-08-21T16:55:16;2.08;;;1.10;;
8683;SDS011;4379;59.744;18.206;2022-08-21T16:57:44;1.20;;;0.85;;